createdAt,value
2022-09-10T00:02:45.233Z,53.13
2022-09-10T00:05:49.063Z,53.11
2022-09-10T00:08:52.030Z,53.15
2022-09-10T00:11:55.088Z,53.23
2022-09-10T00:14:58.006Z,53.09
2022-09-10T00:18:03.113Z,53.02
2022-09-10T00:21:07.738Z,53.10
2022-09-10T00:24:11.011Z,52.96
2022-09-10T00:27:15.092Z,53.08
2022-09-10T00:30:18.235Z,53.03
2022-09-10T00:33:23.878Z,52.96
2022-09-10T00:36:29.130Z,52.97
2022-09-10T00:39:32.084Z,52.95
2022-09-10T00:42:35.691Z,52.88
2022-09-10T00:45:38.735Z,52.85
2022-09-10T00:48:43.078Z,52.82
2022-09-10T00:51:47.695Z,52.70
2022-09-10T00:54:51.215Z,52.78
2022-09-10T00:57:57.573Z,52.83
2022-09-10T01:01:03.517Z,52.87
2022-09-10T01:04:10.729Z,52.77
2022-09-10T01:07:15.626Z,52.75
2022-09-10T01:10:22.355Z,52.49
2022-09-10T01:13:38.529Z,52.75
2022-09-10T01:16:48.774Z,52.62
2022-09-10T01:20:43.668Z,52.74
2022-09-10T01:24:21.871Z,52.57
2022-09-10T01:27:43.590Z,52.64
2022-09-10T01:30:51.509Z,52.58
2022-09-10T01:34:02.189Z,52.54
2022-09-10T01:37:09.409Z,52.60
2022-09-10T01:40:13.311Z,52.57
2022-09-10T01:43:18.285Z,52.57
2022-09-10T01:46:39.301Z,52.43
2022-09-10T01:49:54.633Z,52.48
2022-09-10T01:53:15.433Z,52.38
2022-09-10T01:56:35.574Z,52.32
2022-09-10T01:59:51.635Z,52.25
2022-09-10T02:03:02.120Z,52.38
2022-09-10T02:06:13.173Z,52.36
2022-09-10T02:09:19.876Z,52.25
2022-09-10T02:12:24.745Z,52.18
2022-09-10T02:15:51.351Z,52.33
2022-09-10T02:18:58.280Z,52.13
2022-09-10T02:22:01.431Z,52.21
2022-09-10T02:25:04.889Z,52.16
2022-09-10T02:28:08.899Z,52.10
2022-09-10T02:31:13.463Z,52.10
2022-09-10T02:34:16.950Z,51.92
2022-09-10T02:37:22.837Z,52.06
2022-09-10T02:40:26.102Z,52.17
2022-09-10T02:43:30.129Z,51.90
2022-09-10T02:46:38.309Z,52.00
2022-09-10T02:49:41.358Z,51.97
2022-09-10T02:52:45.683Z,51.91
2022-09-10T02:55:49.447Z,51.91
2022-09-10T02:58:52.476Z,51.97
2022-09-10T03:01:57.094Z,51.99
2022-09-10T03:05:00.479Z,51.91
2022-09-10T03:08:03.978Z,51.83
2022-09-10T03:11:07.126Z,51.95
2022-09-10T03:14:12.218Z,51.91
2022-09-10T03:17:16.959Z,51.71
2022-09-10T03:20:21.191Z,51.79
2022-09-10T03:23:24.106Z,51.90
2022-09-10T03:26:28.265Z,51.82
2022-09-10T03:29:31.633Z,51.94
2022-09-10T03:32:38.213Z,51.77
2022-09-10T03:35:43.272Z,51.81
2022-09-10T03:38:47.478Z,51.82
2022-09-10T03:41:50.522Z,51.54
2022-09-10T03:44:53.558Z,51.76
2022-09-10T03:47:57.946Z,51.70
2022-09-10T03:51:00.846Z,51.55
2022-09-10T03:54:06.135Z,51.53
2022-09-10T03:57:09.674Z,51.64
2022-09-10T04:00:13.761Z,51.49
2022-09-10T04:03:22.262Z,51.51
2022-09-10T04:06:25.201Z,51.59
2022-09-10T04:09:28.093Z,51.53
2022-09-10T04:12:31.138Z,51.61
2022-09-10T04:15:34.873Z,51.65
2022-09-10T04:18:40.708Z,51.60
2022-09-10T04:21:43.842Z,51.72
2022-09-10T04:24:47.522Z,51.60
2022-09-10T04:27:50.901Z,51.40
2022-09-10T04:30:53.965Z,51.34
2022-09-10T04:34:01.404Z,51.35
2022-09-10T04:37:06.194Z,51.39
2022-09-10T04:40:11.578Z,51.33
2022-09-10T04:43:15.214Z,51.39
2022-09-10T04:46:19.083Z,51.32
2022-09-10T04:49:27.038Z,51.24
2022-09-10T04:52:30.003Z,51.15
2022-09-10T04:55:33.459Z,51.17
2022-09-10T04:58:39.166Z,51.14
2022-09-10T05:01:42.923Z,51.21
2022-09-10T05:04:47.632Z,51.17
2022-09-10T05:07:53.078Z,51.20
2022-09-10T05:10:56.347Z,51.08
2022-09-10T05:13:59.471Z,51.08
2022-09-10T05:17:05.634Z,51.03
2022-09-10T05:20:11.804Z,50.98
2022-09-10T05:23:23.179Z,51.02
2022-09-10T05:26:28.755Z,51.06
2022-09-10T05:29:34.131Z,51.02
2022-09-10T05:32:37.090Z,50.98
2022-09-10T05:35:42.014Z,51.06
2022-09-10T05:38:46.456Z,51.04
2022-09-10T05:41:51.350Z,51.00
2022-09-10T05:44:54.251Z,51.00
2022-09-10T05:47:57.221Z,50.90
2022-09-10T05:51:03.127Z,50.94
2022-09-10T05:54:06.430Z,50.96
2022-09-10T05:57:09.476Z,50.86
2022-09-10T06:00:15.462Z,50.95
2022-09-10T06:03:23.834Z,51.06
2022-09-10T06:06:32.049Z,51.00
2022-09-10T06:09:41.535Z,51.10
2022-09-10T06:13:13.408Z,51.02
2022-09-10T06:16:17.763Z,51.00
2022-09-10T06:19:21.247Z,51.01
2022-09-10T06:22:28.027Z,51.17
2022-09-10T06:25:31.165Z,51.03
2022-09-10T06:28:35.195Z,51.13
2022-09-10T06:31:38.217Z,51.14
2022-09-10T06:34:42.342Z,51.24
2022-09-10T06:37:47.399Z,51.13
2022-09-10T06:40:54.565Z,51.34
2022-09-10T06:43:57.867Z,51.22
2022-09-10T06:47:50.963Z,51.46
2022-09-10T06:50:31.246Z,51.41
2022-09-10T06:53:37.016Z,51.49
2022-09-10T06:56:42.860Z,51.41
2022-09-10T06:59:46.221Z,51.43
2022-09-10T07:02:50.624Z,51.50
2022-09-10T07:05:55.686Z,51.52
2022-09-10T07:09:05.298Z,51.58
2022-09-10T07:12:16.638Z,51.66
2022-09-10T07:15:20.455Z,51.70
2022-09-10T07:18:23.478Z,51.70
2022-09-10T07:21:28.791Z,51.77
2022-09-10T07:24:37.462Z,51.88
2022-09-10T07:27:47.523Z,51.87
2022-09-10T07:30:50.498Z,51.94
2022-09-10T07:33:53.403Z,52.08
2022-09-10T07:36:56.822Z,52.04
2022-09-10T07:40:03.552Z,52.06
2022-09-10T07:43:08.250Z,52.05
2022-09-10T07:46:13.998Z,52.15
2022-09-10T07:49:17.547Z,52.13
2022-09-10T07:52:23.962Z,52.26
2022-09-10T07:55:32.146Z,52.31
2022-09-10T07:58:38.300Z,52.34
2022-09-10T08:01:44.812Z,52.45
2022-09-10T08:04:50.584Z,52.56
2022-09-10T08:07:55.103Z,52.57
2022-09-10T08:11:11.809Z,52.75
2022-09-10T08:14:16.762Z,52.76
2022-09-10T08:17:25.365Z,52.87
2022-09-10T08:20:28.524Z,52.86
2022-09-10T08:23:32.779Z,52.79
2022-09-10T08:26:37.719Z,52.86
2022-09-10T08:29:42.740Z,52.79
2022-09-10T08:32:47.030Z,52.88
2022-09-10T08:35:54.214Z,52.87
2022-09-10T08:39:02.182Z,52.99
2022-09-10T08:42:17.575Z,52.87
2022-09-10T08:45:26.738Z,52.78
2022-09-10T08:48:35.797Z,52.93
2022-09-10T08:51:45.086Z,52.84
2022-09-10T08:54:59.377Z,52.83
2022-09-10T08:58:13.843Z,52.70
2022-09-10T09:01:30.403Z,52.81
2022-09-10T09:04:41.161Z,52.86
2022-09-10T09:07:44.964Z,52.91
2022-09-10T09:10:50.574Z,52.82
2022-09-10T09:14:11.622Z,52.87
2022-09-10T09:17:38.061Z,53.38
2022-09-10T09:20:46.579Z,54.76
2022-09-10T09:27:31.457Z,55.37
2022-09-10T09:30:42.120Z,55.28
2022-09-10T09:33:46.507Z,55.09
2022-09-10T09:36:52.754Z,55.06
2022-09-10T09:40:08.768Z,54.91
2022-09-10T09:43:23.893Z,54.67
2022-09-10T09:46:28.308Z,54.63
2022-09-10T09:49:35.442Z,54.57
2022-09-10T09:52:38.939Z,54.33
2022-09-10T09:55:47.111Z,54.33
2022-09-10T09:58:52.062Z,54.33
2022-09-10T10:01:58.761Z,54.45
2022-09-10T10:05:07.914Z,54.53
2022-09-10T10:08:30.144Z,54.72
2022-09-10T10:11:46.965Z,54.84
2022-09-10T10:14:51.393Z,54.71
2022-09-10T10:17:55.782Z,54.56
2022-09-10T10:21:19.836Z,54.60
2022-09-10T10:24:32.745Z,54.46
2022-09-10T10:27:37.826Z,54.67
2022-09-10T10:30:41.940Z,54.42
2022-09-10T10:33:55.510Z,54.45
2022-09-10T10:37:08.688Z,54.38
2022-09-10T10:40:20.225Z,54.41
2022-09-10T10:43:36.402Z,54.35
2022-09-10T10:46:48.649Z,54.26
2022-09-10T10:50:04.978Z,54.00
2022-09-10T10:53:36.095Z,53.96
2022-09-10T10:56:42.658Z,53.97
2022-09-10T10:59:55.570Z,54.02
2022-09-10T11:03:05.694Z,54.07
2022-09-10T11:06:14.836Z,54.02
2022-09-10T11:09:25.538Z,54.05
2022-09-10T11:12:33.271Z,54.05
2022-09-10T11:15:43.185Z,54.12
2022-09-10T11:18:50.278Z,53.97
2022-09-10T11:21:59.289Z,53.95
2022-09-10T11:25:08.448Z,54.02
2022-09-10T11:28:16.313Z,54.20
2022-09-10T11:31:30.426Z,54.31
2022-09-10T11:34:41.261Z,54.32
2022-09-10T11:37:53.525Z,54.31
2022-09-10T11:41:07.661Z,54.35
2022-09-10T11:44:27.897Z,54.17
2022-09-10T11:47:36.590Z,54.41
2022-09-10T11:50:48.322Z,54.32
2022-09-10T11:53:54.354Z,54.27
2022-09-10T11:57:01.791Z,53.00
2022-09-10T12:00:11.762Z,53.31
2022-09-10T12:03:42.065Z,53.74
2022-09-10T12:06:53.750Z,53.50
2022-09-10T12:10:14.139Z,53.32
2022-09-10T12:13:17.998Z,53.68
2022-09-10T12:16:29.488Z,54.07
2022-09-10T12:19:37.280Z,53.68
2022-09-10T12:22:42.598Z,53.34
2022-09-10T12:25:57.846Z,53.49
2022-09-10T12:29:06.709Z,53.41
2022-09-10T12:32:36.949Z,53.12
2022-09-10T12:35:46.210Z,53.23
2022-09-10T12:38:55.213Z,53.22
2022-09-10T12:42:04.025Z,52.99
2022-09-10T12:45:09.838Z,53.05
2022-09-10T12:48:14.211Z,53.02
2022-09-10T12:51:29.743Z,53.19
2022-09-10T12:54:55.716Z,52.94
2022-09-10T12:58:07.260Z,52.95
2022-09-10T13:01:20.337Z,53.51
2022-09-10T13:04:29.502Z,53.69
2022-09-10T13:07:40.223Z,54.12
2022-09-10T13:10:45.824Z,54.34
2022-09-10T13:14:00.885Z,54.96
2022-09-10T13:17:04.383Z,54.90
2022-09-10T13:20:15.766Z,55.04
2022-09-10T13:23:23.532Z,55.41
2022-09-10T13:26:49.165Z,55.02
2022-09-10T13:30:10.777Z,55.16
2022-09-10T13:33:22.150Z,55.26
2022-09-10T13:36:33.089Z,55.00
2022-09-10T13:40:00.011Z,54.78
2022-09-10T13:43:21.377Z,54.88
2022-09-10T13:46:35.221Z,54.88
2022-09-10T13:49:46.613Z,54.96
2022-09-10T13:52:54.946Z,54.99
2022-09-10T13:56:01.066Z,54.94
2022-09-10T13:59:06.317Z,54.88
2022-09-10T14:02:10.916Z,55.03
2022-09-10T14:05:30.885Z,55.00
2022-09-10T14:08:38.504Z,54.86
2022-09-10T14:11:44.095Z,54.65
2022-09-10T14:14:51.049Z,54.71
2022-09-10T14:17:59.621Z,54.40
2022-09-10T14:21:03.432Z,54.37
2022-09-10T14:24:06.941Z,54.32
2022-09-10T14:27:18.466Z,54.43
2022-09-10T14:30:26.679Z,54.93
2022-09-10T14:33:34.416Z,54.67
2022-09-10T14:36:37.369Z,54.49
2022-09-10T14:39:45.371Z,54.41
2022-09-10T14:42:49.747Z,54.08
2022-09-10T14:45:52.841Z,54.14
2022-09-10T14:49:11.593Z,54.17
2022-09-10T14:52:15.049Z,54.12
2022-09-10T14:55:18.190Z,54.09
2022-09-10T14:58:21.138Z,53.82
2022-09-10T15:01:24.286Z,53.80
2022-09-10T15:04:30.755Z,53.84
2022-09-10T15:07:33.666Z,53.70
2022-09-10T15:10:36.679Z,53.70
2022-09-10T15:13:43.458Z,53.74
2022-09-10T15:16:46.555Z,53.87
2022-09-10T15:19:52.171Z,53.96
2022-09-10T15:22:55.063Z,53.72
2022-09-10T15:25:59.849Z,53.98
2022-09-10T15:29:02.772Z,54.05
2022-09-10T15:32:05.950Z,54.01
2022-09-10T15:35:10.699Z,53.98
2022-09-10T15:38:14.150Z,53.87
2022-09-10T15:41:17.017Z,53.88
2022-09-10T15:44:20.023Z,53.92
2022-09-10T15:47:23.368Z,53.88
2022-09-10T15:50:27.756Z,54.04
2022-09-10T15:53:32.813Z,55.04
2022-09-10T15:56:36.672Z,55.62
2022-09-10T15:59:40.565Z,55.13
2022-09-10T16:02:47.162Z,56.16
2022-09-10T16:05:51.493Z,56.02
2022-09-10T16:08:57.125Z,56.83
2022-09-10T16:12:00.020Z,54.89
2022-09-10T16:15:03.033Z,56.24
2022-09-10T16:18:06.577Z,56.32
2022-09-10T16:21:12.870Z,56.24
2022-09-10T16:24:15.863Z,55.92
2022-09-10T16:27:19.039Z,56.14
2022-09-10T16:30:22.776Z,55.90
2022-09-10T16:33:26.174Z,55.81
2022-09-10T16:36:33.006Z,55.73
2022-09-10T16:39:36.114Z,55.64
2022-09-10T16:42:39.110Z,55.59
2022-09-10T16:45:51.126Z,55.62
2022-09-10T16:48:55.787Z,55.51
2022-09-10T16:52:00.123Z,55.41
2022-09-10T16:55:04.482Z,55.23
2022-09-10T16:58:07.519Z,55.39
2022-09-10T17:01:10.947Z,55.60
2022-09-10T17:04:19.249Z,55.39
2022-09-10T17:07:24.313Z,55.32
2022-09-10T17:10:27.304Z,55.24
2022-09-10T17:13:30.502Z,55.21
2022-09-10T17:16:36.686Z,55.11
2022-09-10T17:19:39.583Z,55.03
2022-09-10T17:22:43.888Z,55.00
2022-09-10T17:25:47.901Z,54.97
2022-09-10T17:28:55.644Z,55.12
2022-09-10T17:31:59.059Z,55.12
2022-09-10T17:35:01.969Z,55.18
2022-09-10T17:38:08.352Z,55.25
2022-09-10T17:41:14.414Z,55.38
2022-09-10T17:44:17.739Z,55.46
2022-09-10T17:47:20.842Z,55.30
2022-09-10T17:50:23.718Z,55.30
2022-09-10T17:53:28.087Z,55.20
2022-09-10T17:56:31.118Z,55.26
2022-09-10T17:59:35.049Z,55.12
2022-09-10T18:02:38.107Z,55.09
2022-09-10T18:05:42.241Z,55.29
2022-09-10T18:08:46.667Z,55.46
2022-09-10T18:11:49.645Z,55.28
2022-09-10T18:14:52.577Z,55.32
2022-09-10T18:17:55.971Z,55.41
2022-09-10T18:21:00.377Z,55.39
2022-09-10T18:24:07.602Z,55.51
2022-09-10T18:27:10.492Z,55.35
2022-09-10T18:30:14.107Z,55.40
2022-09-10T18:33:18.446Z,55.17
2022-09-10T18:36:21.789Z,55.07
2022-09-10T18:39:28.149Z,55.30
2022-09-10T18:42:31.151Z,55.28
2022-09-10T18:45:34.025Z,55.23
2022-09-10T18:48:36.950Z,55.16
2022-09-10T18:51:42.194Z,55.30
2022-09-10T18:54:46.837Z,55.15
2022-09-10T18:57:49.797Z,55.28
2022-09-10T19:00:56.646Z,55.32
2022-09-10T19:04:03.108Z,55.40
2022-09-10T19:07:06.689Z,55.38
2022-09-10T19:10:11.315Z,55.37
2022-09-10T19:13:14.343Z,55.44
2022-09-10T19:16:18.089Z,55.40
2022-09-10T19:19:23.393Z,55.37
2022-09-10T19:22:26.426Z,55.36
2022-09-10T19:25:30.954Z,55.44
2022-09-10T19:28:34.630Z,55.43
2022-09-10T19:31:37.642Z,55.40
2022-09-10T19:34:40.674Z,55.30
2022-09-10T19:37:43.710Z,55.29
2022-09-10T19:40:48.030Z,55.08
2022-09-10T19:43:52.391Z,55.17
2022-09-10T19:46:55.286Z,55.06
2022-09-10T19:49:59.182Z,55.17
2022-09-10T19:53:02.421Z,55.25
2022-09-10T19:56:09.347Z,55.10
2022-09-10T19:59:12.851Z,55.31
2022-09-10T20:02:15.909Z,55.21
2022-09-10T20:05:18.982Z,55.25
2022-09-10T20:08:22.081Z,55.27
2022-09-10T20:11:29.907Z,55.13
2022-09-10T20:14:32.938Z,55.15
2022-09-10T20:17:36.019Z,54.95
2022-09-10T20:20:39.028Z,55.13
2022-09-10T20:23:43.986Z,55.05
2022-09-10T20:26:49.062Z,55.15
2022-09-10T20:29:52.105Z,55.14
2022-09-10T20:32:55.170Z,54.95
2022-09-10T20:35:58.070Z,55.13
2022-09-10T20:39:01.460Z,55.14
2022-09-10T20:42:06.645Z,55.27
2022-09-10T20:45:10.125Z,55.00
2022-09-10T20:48:13.221Z,55.20
2022-09-10T20:51:17.746Z,55.03
2022-09-10T20:54:20.800Z,55.08
2022-09-10T20:57:25.247Z,55.09
2022-09-10T21:00:28.173Z,55.14
2022-09-10T21:03:31.980Z,55.02
2022-09-10T21:06:36.592Z,55.14
2022-09-10T21:09:39.611Z,55.14
2022-09-10T21:12:43.903Z,55.04
2022-09-10T21:15:46.854Z,55.02
2022-09-10T21:18:54.622Z,55.07
2022-09-10T21:21:58.312Z,54.92
2022-09-10T21:25:01.249Z,55.03
2022-09-10T21:28:05.699Z,55.09
2022-09-10T21:31:10.206Z,54.83
2022-09-10T21:34:14.306Z,54.93
2022-09-10T21:37:18.238Z,54.99
2022-09-10T21:40:21.225Z,54.92
2022-09-10T21:43:25.643Z,54.92
2022-09-10T21:46:29.437Z,54.93
2022-09-10T21:49:32.518Z,54.85
2022-09-10T21:52:35.443Z,54.92
2022-09-10T21:55:38.885Z,54.92
2022-09-10T21:58:45.710Z,54.94
2022-09-10T22:01:49.557Z,54.74
2022-09-10T22:04:52.529Z,54.89
2022-09-10T22:07:55.485Z,54.84
2022-09-10T22:11:00.549Z,54.78
2022-09-10T22:14:07.603Z,54.80
2022-09-10T22:17:10.515Z,54.65
2022-09-10T22:20:13.413Z,54.75
2022-09-10T22:23:16.274Z,54.76
2022-09-10T22:26:20.922Z,54.72
2022-09-10T22:29:25.254Z,54.58
2022-09-10T22:32:28.281Z,54.77
2022-09-10T22:35:31.257Z,54.68
2022-09-10T22:38:34.242Z,54.69
2022-09-10T22:41:38.178Z,54.66
2022-09-10T22:44:42.606Z,54.69
2022-09-10T22:47:45.822Z,54.61
2022-09-10T22:50:48.771Z,54.63
2022-09-10T22:53:53.450Z,54.60
2022-09-10T22:56:59.362Z,54.57
2022-09-10T23:00:04.338Z,54.70
2022-09-10T23:03:07.225Z,54.61
2022-09-10T23:06:12.077Z,54.65
2022-09-10T23:09:16.462Z,54.64
2022-09-10T23:12:22.549Z,54.55
2022-09-10T23:15:26.938Z,54.59
2022-09-10T23:18:29.834Z,54.40
2022-09-10T23:21:34.790Z,54.48
2022-09-10T23:24:37.718Z,54.42
2022-09-10T23:27:40.662Z,54.46
2022-09-10T23:30:45.621Z,54.49
2022-09-10T23:33:54.436Z,54.27
2022-09-10T23:36:57.347Z,54.32
2022-09-10T23:40:00.337Z,54.36
2022-09-10T23:43:03.264Z,54.23
2022-09-10T23:46:08.890Z,54.23
2022-09-10T23:49:12.625Z,54.27
2022-09-10T23:52:15.887Z,54.29
2022-09-10T23:55:19.591Z,54.21
2022-09-10T23:58:23.111Z,54.19
